Time;durP1;ratioP1;P1;durP2;ratioP2;P2;SDS_P1;SDS_P2;PMS_P1;PMS_P2;Temp;Humidity;BMP_temperature;BMP_pressure;BME280_temperature;BME280_humidity;BME280_pressure;Samples;Min_cycle;Max_cycle;Signal;HPM_P1;HPM_P2
2022/03/06 00:01:30;;;;;;;6.87;3.25;;;;;;;2.63;46.97;100225.94;4441818;32;34355;-73
2022/03/06 00:04:16;;;;;;;7.87;3.70;;;;;;;2.33;47.90;100216.19;4441978;32;34707;-73
2022/03/06 00:07:03;;;;;;;7.28;3.53;;;;;;;2.79;46.93;100218.88;4438920;32;35770;-73
2022/03/06 00:09:49;;;;;;;10.18;3.85;;;;;;;2.93;46.63;100220.19;4439635;32;35496;-73
2022/03/06 00:12:36;;;;;;;7.37;3.78;;;;;;;3.15;45.65;100223.78;4444020;32;35159;-73
2022/03/06 00:15:23;;;;;;;8.68;4.18;;;;;;;3.02;45.86;100226.84;4440653;32;35487;-73
2022/03/06 00:18:13;;;;;;;9.32;3.97;;;;;;;2.97;46.04;100228.66;4443208;32;34956;-73
2022/03/06 00:21:00;;;;;;;11.90;3.95;;;;;;;2.99;46.01;100227.34;4441753;32;35460;-73
2022/03/06 00:23:47;;;;;;;8.98;4.03;;;;;;;2.92;46.38;100232.09;4440846;32;34154;-73
2022/03/06 00:26:33;;;;;;;8.93;4.15;;;;;;;2.57;47.46;100221.50;4440631;32;34755;-74
2022/03/06 00:29:19;;;;;;;12.82;5.10;;;;;;;2.52;47.69;100229.50;4429967;32;34911;-73
2022/03/06 00:32:07;;;;;;;8.05;3.55;;;;;;;2.22;48.46;100230.56;4439480;32;35764;-73
2022/03/06 00:34:53;;;;;;;9.40;4.25;;;;;;;2.22;48.41;100233.28;4447810;32;35194;-73
2022/03/06 00:37:39;;;;;;;10.65;4.12;;;;;;;2.07;48.92;100228.41;4437681;32;34687;-74
2022/03/06 00:40:26;;;;;;;10.50;4.60;;;;;;;2.09;48.88;100225.47;4448464;32;35013;-74
2022/03/06 00:43:13;;;;;;;8.23;4.15;;;;;;;1.94;49.53;100228.69;4437388;32;35630;-73
2022/03/06 00:45:59;;;;;;;9.20;4.43;;;;;;;2.04;49.11;100237.00;4449976;32;35150;-73
2022/03/06 00:48:45;;;;;;;12.23;3.95;;;;;;;2.05;49.29;100235.09;4451360;32;34831;-73
2022/03/06 00:51:32;;;;;;;9.45;4.18;;;;;;;1.89;49.35;100231.28;4449272;32;35933;-73
2022/03/06 00:54:19;;;;;;;9.93;4.40;;;;;;;1.95;49.33;100235.72;4438219;32;34590;-73
2022/03/06 00:57:05;;;;;;;9.18;4.37;;;;;;;1.98;49.33;100229.84;4450715;32;35005;-73
2022/03/06 00:59:52;;;;;;;8.25;3.50;;;;;;;2.04;49.13;100237.00;4449765;32;35569;-73
2022/03/06 01:02:38;;;;;;;9.18;4.25;;;;;;;2.11;48.82;100235.00;4438712;32;34628;-73
2022/03/06 01:05:25;;;;;;;9.95;4.05;;;;;;;1.93;49.15;100230.56;4450773;32;35112;-73
2022/03/06 01:08:12;;;;;;;10.18;4.30;;;;;;;1.99;49.32;100226.91;4450381;32;35023;-73
2022/03/06 01:10:59;;;;;;;8.38;3.78;;;;;;;1.91;49.47;100229.19;4451395;32;35617;-73
2022/03/06 01:13:45;;;;;;;7.72;4.00;;;;;;;2.01;49.06;100232.88;4438716;32;34443;-73
2022/03/06 01:16:32;;;;;;;7.28;3.90;;;;;;;2.03;49.19;100221.84;4437549;32;34689;-73
2022/03/06 01:19:18;;;;;;;7.87;3.75;;;;;;;1.94;49.70;100224.09;4440392;32;34169;-73
2022/03/06 01:22:04;;;;;;;8.48;3.75;;;;;;;1.55;50.62;100221.13;4452382;32;34615;-73
2022/03/06 01:24:51;;;;;;;7.90;3.83;;;;;;;1.78;50.23;100214.84;4450801;32;35986;-74
2022/03/06 01:27:37;;;;;;;9.30;4.10;;;;;;;1.85;49.87;100208.50;4451421;32;35813;-73
2022/03/06 01:30:25;;;;;;;9.20;3.80;;;;;;;1.64;50.25;100210.78;4440314;32;34332;-73
2022/03/06 01:33:11;;;;;;;6.93;3.35;;;;;;;1.82;50.26;100206.28;4440216;32;34593;-74
2022/03/06 01:35:58;;;;;;;9.50;3.87;;;;;;;1.46;51.59;100202.84;4451945;32;34927;-74
2022/03/06 01:38:44;;;;;;;9.05;4.05;;;;;;;1.57;50.97;100194.72;4452832;32;34392;-74
2022/03/06 01:41:35;;;;;;;7.95;3.87;;;;;;;1.74;50.23;100192.09;4440934;32;34090;-74
2022/03/06 01:44:21;;;;;;;7.25;3.92;;;;;;;1.52;50.66;100191.09;4452163;32;34613;-74
2022/03/06 01:47:08;;;;;;;8.43;4.18;;;;;;;1.60;50.71;100185.31;4453460;32;35059;-74
2022/03/06 01:49:54;;;;;;;9.63;4.68;;;;;;;1.66;50.50;100184.34;4452336;32;34822;-73
2022/03/06 01:52:41;;;;;;;6.45;3.87;;;;;;;1.59;50.78;100189.06;4441199;32;33747;-74
2022/03/06 01:55:28;;;;;;;7.25;3.90;;;;;;;1.20;51.54;100188.78;4451303;32;34763;-72
2022/03/06 01:58:14;;;;;;;10.43;4.60;;;;;;;1.45;51.42;100180.41;4450786;32;35887;-74
2022/03/06 02:01:01;;;;;;;9.52;4.40;;;;;;;1.38;51.80;100177.00;4452381;32;34691;-74
2022/03/06 02:03:47;;;;;;;8.25;4.30;;;;;;;1.24;51.94;100175.63;4440338;32;35045;-74
2022/03/06 02:06:36;;;;;;;9.07;4.22;;;;;;;1.33;52.03;100174.19;4439784;32;34638;-75
2022/03/06 02:09:22;;;;;;;8.20;3.80;;;;;;;1.34;51.90;100171.28;4440155;32;34901;-74
2022/03/06 02:12:24;;;;;;;11.10;5.12;;;;;;;1.06;52.83;100179.28;4452719;32;35548;-75
2022/03/06 02:15:12;;;;;;;10.98;4.85;;;;;;;1.18;52.37;100172.00;4452040;32;35121;-74
2022/03/06 02:17:59;;;;;;;11.38;5.65;;;;;;;1.20;52.16;100180.69;4440811;32;34522;-74
2022/03/06 02:20:47;;;;;;;14.32;6.12;;;;;;;0.90;52.94;100176.22;4440483;32;34438;-74
2022/03/06 02:23:33;;;;;;;13.48;5.60;;;;;;;0.82;53.25;100178.44;4440038;32;34840;-74
2022/03/06 02:26:19;;;;;;;10.82;5.07;;;;;;;0.32;54.89;100174.25;4440595;32;35346;-74
2022/03/06 02:29:06;;;;;;;11.55;5.00;;;;;;;0.57;54.33;100175.94;4419213;32;34606;-74
2022/03/06 02:31:53;;;;;;;8.93;4.05;;;;;;;0.75;53.83;100175.84;4429841;32;34983;-74
2022/03/06 02:34:41;;;;;;;10.73;4.70;;;;;;;0.51;54.36;100182.25;4412122;32;35409;-74
2022/03/06 02:37:28;;;;;;;9.38;4.55;;;;;;;0.50;54.55;100175.22;4434971;32;34727;-74
2022/03/06 02:40:15;;;;;;;11.25;4.78;;;;;;;0.40;54.79;100176.63;4435746;32;34652;-75
2022/03/06 02:43:01;;;;;;;10.77;4.95;;;;;;;0.53;54.43;100174.78;4420461;32;35984;-74
2022/03/06 02:45:48;;;;;;;10.23;4.95;;;;;;;0.55;54.46;100172.66;4435625;32;35506;-74
2022/03/06 02:48:34;;;;;;;12.55;4.90;;;;;;;0.31;55.12;100175.28;4419779;32;35073;-75
2022/03/06 02:51:21;;;;;;;9.68;4.53;;;;;;;0.28;55.00;100173.06;4424182;32;34601;-76
2022/03/06 02:54:07;;;;;;;12.80;5.18;;;;;;;0.21;55.73;100172.34;4436545;32;35761;-76
2022/03/06 02:56:53;;;;;;;7.60;3.87;;;;;;;0.48;54.96;100166.53;4434933;32;33531;-76
2022/03/06 02:59:40;;;;;;;11.30;4.28;;;;;;;0.61;54.19;100171.75;4436480;32;35133;-76
2022/03/06 03:02:27;;;;;;;9.52;4.32;;;;;;;0.53;54.26;100169.37;4434440;32;36104;-76
2022/03/06 03:05:14;;;;;;;11.52;4.72;;;;;;;0.75;53.56;100178.56;4424452;32;35877;-76
2022/03/06 03:08:00;;;;;;;10.77;4.75;;;;;;;0.83;53.25;100175.53;4432844;32;34659;-76
2022/03/06 03:10:46;;;;;;;9.85;4.47;;;;;;;0.67;53.65;100166.22;4435279;32;34228;-76
2022/03/06 03:13:33;;;;;;;8.68;3.70;;;;;;;0.49;54.29;100168.22;4434609;32;35191;-76
2022/03/06 03:16:20;;;;;;;11.90;4.40;;;;;;;0.73;53.49;100167.16;4436091;32;35986;-75
2022/03/06 03:19:06;;;;;;;11.10;5.43;;;;;;;0.82;53.05;100163.06;4435187;32;34442;-76
2022/03/06 03:21:53;;;;;;;11.50;5.10;;;;;;;0.66;53.30;100166.47;4436206;32;34445;-76
2022/03/06 03:24:40;;;;;;;10.60;4.75;;;;;;;0.37;54.43;100170.84;4422907;32;34488;-76
2022/03/06 03:27:26;;;;;;;9.32;4.80;;;;;;;0.14;55.88;100171.59;4436157;32;35055;-76
2022/03/06 03:30:14;;;;;;;11.73;5.00;;;;;;;0.09;55.52;100171.50;4408282;32;34751;-76
2022/03/06 03:33:00;;;;;;;14.87;5.70;;;;;;;0.06;55.90;100180.00;4434046;32;33853;-76
2022/03/06 03:35:47;;;;;;;13.30;4.62;;;;;;;0.06;55.74;100180.88;4447276;32;35585;-76
2022/03/06 03:38:33;;;;;;;10.25;5.10;;;;;;;-0.02;56.24;100176.59;4451043;32;35151;-76
2022/03/06 03:41:23;;;;;;;9.50;4.72;;;;;;;0.06;55.94;100178.16;4432656;32;34598;-76
2022/03/06 03:44:09;;;;;;;10.73;4.70;;;;;;;-0.28;56.83;100179.66;4437604;32;33841;-75
2022/03/06 03:46:55;;;;;;;10.50;4.97;;;;;;;-0.01;56.10;100183.63;4449488;32;34589;-77
2022/03/06 03:49:42;;;;;;;9.70;4.40;;;;;;;-0.02;56.00;100173.91;4450784;32;38170;-76
2022/03/06 03:52:28;;;;;;;9.80;4.72;;;;;;;0.04;55.81;100188.34;4448651;32;34850;-76
2022/03/06 03:55:14;;;;;;;11.98;5.12;;;;;;;-0.02;55.91;100189.25;4434691;32;33973;-76
2022/03/06 03:58:01;;;;;;;11.05;5.45;;;;;;;-0.28;56.58;100195.81;4449845;32;35622;-76
2022/03/06 04:00:56;;;;;;;10.93;5.45;;;;;;;-0.36;57.08;100190.72;4448861;32;35055;-76
2022/03/06 04:03:44;;;;;;;10.85;5.43;;;;;;;-0.31;56.98;100191.69;4437383;32;34947;-76
2022/03/06 04:06:30;;;;;;;11.18;5.07;;;;;;;-0.34;57.16;100199.38;4435861;32;34668;-76
2022/03/06 04:09:17;;;;;;;12.02;5.47;;;;;;;-0.58;57.71;100204.62;4438066;32;36262;-75
2022/03/06 04:12:03;;;;;;;8.88;5.00;;;;;;;-0.65;58.46;100201.19;4448919;32;34773;-75
2022/03/06 04:14:50;;;;;;;8.45;4.43;;;;;;;-0.61;58.23;100202.38;4437248;32;35571;-75
2022/03/06 04:17:36;;;;;;;10.70;4.15;;;;;;;-1.54;61.97;100205.91;4436888;32;35459;-75
2022/03/06 04:20:23;;;;;;;9.43;4.45;;;;;;;-1.08;60.68;100202.03;4449555;32;35200;-73
2022/03/06 04:23:09;;;;;;;10.25;4.55;;;;;;;-0.72;59.42;100211.19;4438168;32;34740;-75
2022/03/06 04:25:56;;;;;;;11.30;4.95;;;;;;;-0.44;58.61;100199.09;4448928;32;35531;-75
2022/03/06 04:28:42;;;;;;;9.77;4.57;;;;;;;-1.08;60.57;100206.56;4439254;32;34140;-75
2022/03/06 04:31:28;;;;;;;9.10;4.55;;;;;;;-1.46;60.71;100204.81;4439980;32;35489;-75
2022/03/06 04:34:16;;;;;;;11.00;5.05;;;;;;;-1.33;61.68;100209.28;4451610;32;36044;-74
2022/03/06 04:37:03;;;;;;;11.10;5.32;;;;;;;-0.96;59.43;100207.50;4449808;32;35452;-75
2022/03/06 04:39:49;;;;;;;9.80;4.65;;;;;;;-0.78;59.00;100206.72;4438108;32;33102;-75
2022/03/06 04:42:35;;;;;;;9.43;4.85;;;;;;;-0.99;59.41;100214.16;4451335;32;34269;-75
2022/03/06 04:45:24;;;;;;;11.23;4.87;;;;;;;-1.19;60.71;100216.19;4437037;32;34925;-75
2022/03/06 04:48:10;;;;;;;12.25;5.87;;;;;;;-1.02;60.55;100211.91;4449693;32;34246;-74
2022/03/06 04:50:57;;;;;;;11.80;4.82;;;;;;;-0.94;60.02;100208.94;4439221;32;34168;-74
2022/03/06 04:53:43;;;;;;;10.25;5.15;;;;;;;-1.43;61.87;100210.56;4450306;32;34692;-74
2022/03/06 04:56:29;;;;;;;11.25;5.10;;;;;;;-1.28;60.92;100212.12;4438561;32;34931;-74
2022/03/06 04:59:16;;;;;;;12.13;5.00;;;;;;;-1.76;63.29;100210.00;4428079;32;34651;-74
2022/03/06 05:02:03;;;;;;;12.13;4.72;;;;;;;-1.78;62.99;100210.19;4449595;32;35067;-74
2022/03/06 05:04:50;;;;;;;9.30;4.37;;;;;;;-1.81;61.82;100203.41;4432633;32;35454;-74
2022/03/06 05:07:38;;;;;;;12.30;4.80;;;;;;;-1.38;61.66;100215.31;4431285;32;35641;-74
2022/03/06 05:10:24;;;;;;;8.55;4.37;;;;;;;-1.24;60.87;100208.78;4438020;32;35746;-74
2022/03/06 05:13:10;;;;;;;12.25;5.25;;;;;;;-1.53;61.93;100210.25;4449708;32;34681;-74
2022/03/06 05:15:57;;;;;;;10.70;5.05;;;;;;;-1.77;62.16;100219.06;4449535;32;34742;-74
2022/03/06 05:18:43;;;;;;;11.45;4.60;;;;;;;-1.62;62.37;100212.38;4437433;32;34795;-74
2022/03/06 05:21:29;;;;;;;11.88;4.75;;;;;;;-1.79;62.90;100215.78;4438461;32;34602;-74
2022/03/06 05:24:16;;;;;;;9.82;4.53;;;;;;;-1.52;62.09;100216.44;4447823;32;34257;-74
2022/03/06 05:27:02;;;;;;;12.23;4.78;;;;;;;-1.44;61.73;100214.31;4449343;32;34604;-74
2022/03/06 05:29:48;;;;;;;9.40;4.50;;;;;;;-1.19;61.07;100221.56;4450292;32;34914;-74
2022/03/06 05:32:35;;;;;;;8.85;4.25;;;;;;;-1.06;60.19;100220.63;4436530;32;35291;-74
2022/03/06 05:35:21;;;;;;;10.40;4.95;;;;;;;-1.20;60.52;100219.91;4437417;32;34072;-74
2022/03/06 05:38:07;;;;;;;11.32;4.32;;;;;;;-1.61;61.64;100222.06;4449254;32;34175;-74
2022/03/06 05:40:54;;;;;;;10.80;4.87;;;;;;;-1.47;62.45;100222.00;4449862;32;35679;-74
2022/03/06 05:43:40;;;;;;;10.02;5.20;;;;;;;-1.23;61.48;100225.72;4436763;32;34420;-74
2022/03/06 05:46:26;;;;;;;9.93;4.20;;;;;;;-1.14;61.26;100227.09;4435527;32;33091;-74
2022/03/06 05:49:13;;;;;;;9.57;3.85;;;;;;;-1.41;61.43;100230.00;4437473;32;34523;-74
2022/03/06 05:52:00;;;;;;;7.78;3.60;;;;;;;-1.21;61.27;100229.03;4448901;32;34369;-74
2022/03/06 05:54:46;;;;;;;9.23;4.05;;;;;;;-1.14;60.49;100229.78;4437299;32;35498;-74
2022/03/06 05:57:33;;;;;;;8.80;3.58;;;;;;;-0.66;59.12;100229.12;4448735;32;34406;-74
2022/03/06 06:00:20;;;;;;;9.30;3.72;;;;;;;-1.45;60.28;100228.81;4436227;32;34356;-74
2022/03/06 06:03:06;;;;;;;11.57;3.47;;;;;;;-1.49;60.75;100227.56;4449337;32;35969;-74
2022/03/06 06:05:53;;;;;;;6.05;3.00;;;;;;;-1.99;63.67;100223.94;4436851;32;34327;-74
2022/03/06 06:08:41;;;;;;;22.58;8.35;;;;;;;-1.39;61.52;100216.34;4436484;32;34279;-75
2022/03/06 06:11:28;;;;;;;25.62;9.18;;;;;;;-1.74;61.95;100215.97;4436965;32;35150;-75
2022/03/06 06:14:14;;;;;;;26.40;9.13;;;;;;;-1.06;60.66;100218.75;4446751;32;35628;-75
2022/03/06 06:17:05;;;;;;;28.33;9.20;;;;;;;-0.25;57.69;100217.72;4448715;32;34429;-74
2022/03/06 06:19:52;;;;;;;14.02;5.72;;;;;;;-0.71;58.68;100202.91;4447820;32;35085;-75
2022/03/06 06:22:38;;;;;;;10.40;4.35;;;;;;;-0.47;58.16;100201.19;4436589;32;34639;-74
2022/03/06 06:25:24;;;;;;;8.43;3.53;;;;;;;-0.69;58.76;100205.38;4437072;32;35494;-75
2022/03/06 06:28:10;;;;;;;7.12;3.17;;;;;;;-1.11;60.15;100202.47;4439181;32;35445;-75
2022/03/06 06:30:57;;;;;;;7.12;3.53;;;;;;;-1.09;59.80;100195.00;4425879;32;34685;-76
2022/03/06 06:33:43;;;;;;;7.28;3.35;;;;;;;-0.58;58.76;100204.62;4422136;32;34511;-75
2022/03/06 06:36:29;;;;;;;7.15;3.40;;;;;;;-0.96;59.64;100208.31;4450627;32;34494;-76
2022/03/06 06:39:16;;;;;;;7.22;3.28;;;;;;;-0.65;58.62;100201.19;4438946;32;35481;-76
2022/03/06 06:42:03;;;;;;;8.88;3.60;;;;;;;-0.25;57.68;100206.13;4451474;32;35668;-76
2022/03/06 06:44:49;;;;;;;7.05;3.40;;;;;;;-0.12;57.44;100207.81;4450835;32;35378;-76
2022/03/06 06:47:36;;;;;;;11.27;3.53;;;;;;;0.64;55.22;100214.41;4451106;32;36053;-76
2022/03/06 06:50:22;;;;;;;5.87;3.37;;;;;;;0.72;54.64;100210.56;4451396;32;35433;-76
2022/03/06 06:53:09;;;;;;;6.53;2.90;;;;;;;0.93;54.31;100218.09;4428440;32;35052;-76
2022/03/06 06:55:55;;;;;;;8.80;3.10;;;;;;;0.48;54.79;100215.91;4451207;32;34687;-76
2022/03/06 06:58:41;;;;;;;5.65;2.75;;;;;;;0.42;54.45;100209.56;4450769;32;34751;-76
2022/03/06 07:01:28;;;;;;;7.37;2.85;;;;;;;0.52;54.06;100214.41;4439498;32;34836;-77
2022/03/06 07:04:17;;;;;;;9.25;3.62;;;;;;;0.87;54.02;100213.63;4439055;32;35170;-76
2022/03/06 07:07:03;;;;;;;7.35;3.20;;;;;;;0.81;52.80;100212.69;4437949;32;35537;-76
2022/03/06 07:09:50;;;;;;;7.25;3.55;;;;;;;1.38;52.34;100222.09;4427991;32;34954;-76
2022/03/06 07:12:48;;;;;;;5.97;3.12;;;;;;;1.30;52.25;100228.66;4438740;32;35461;-76
2022/03/06 07:15:34;;;;;;;6.50;3.20;;;;;;;1.26;52.39;100224.81;4438956;32;35062;-76
2022/03/06 07:18:21;;;;;;;7.55;3.35;;;;;;;0.91;52.19;100231.00;4438412;32;34796;-76
2022/03/06 07:21:07;;;;;;;6.95;3.00;;;;;;;1.19;51.74;100229.50;4434902;32;35008;-76
2022/03/06 07:23:53;;;;;;;6.87;2.95;;;;;;;1.19;51.21;100222.22;4438148;32;35489;-76
2022/03/06 07:26:40;;;;;;;5.75;3.03;;;;;;;1.17;51.30;100229.75;4438788;32;34110;-76
2022/03/06 07:29:26;;;;;;;8.38;3.65;;;;;;;1.74;51.07;100219.09;4449751;32;34709;-76
2022/03/06 07:32:13;;;;;;;9.82;3.40;;;;;;;1.20;51.02;100223.87;4450666;32;34978;-76
2022/03/06 07:34:59;;;;;;;6.47;3.25;;;;;;;1.73;50.84;100222.84;4439130;32;34663;-76
2022/03/06 07:37:46;;;;;;;6.15;3.03;;;;;;;1.83;49.43;100208.75;4450383;32;33782;-76
2022/03/06 07:40:32;;;;;;;6.80;3.22;;;;;;;2.60;48.47;100219.13;4438885;32;34692;-75
2022/03/06 07:43:19;;;;;;;7.22;3.17;;;;;;;2.68;47.57;100205.19;4448889;32;35985;-76
2022/03/06 07:46:05;;;;;;;5.78;2.75;;;;;;;2.16;48.94;100216.16;4450743;32;34628;-77
2022/03/06 07:48:52;;;;;;;7.00;3.42;;;;;;;2.81;47.35;100214.84;4448691;32;35196;-73
2022/03/06 07:51:39;;;;;;;7.75;3.00;;;;;;;3.23;46.58;100213.63;4436009;32;34241;-73
2022/03/06 07:54:25;;;;;;;8.40;2.83;;;;;;;3.69;44.99;100200.69;4445990;32;35835;-72
2022/03/06 07:57:12;;;;;;;6.72;3.35;;;;;;;3.96;44.46;100200.78;4433387;32;34782;-73
2022/03/06 07:59:58;;;;;;;7.70;3.60;;;;;;;4.12;43.84;100199.84;4435385;32;34156;-73
2022/03/06 08:02:44;;;;;;;6.75;3.33;;;;;;;4.24;43.50;100192.41;4447773;32;34226;-73
2022/03/06 08:05:31;;;;;;;6.85;3.30;;;;;;;4.16;43.52;100190.16;4433761;32;34696;-73
2022/03/06 08:08:18;;;;;;;7.10;3.00;;;;;;;3.90;43.13;100199.87;4433349;32;35431;-73
2022/03/06 08:11:04;;;;;;;6.15;3.05;;;;;;;3.95;43.88;100199.94;4433561;32;33735;-73
2022/03/06 08:13:50;;;;;;;5.43;2.53;;;;;;;3.95;42.98;100205.34;4445898;32;34285;-73
2022/03/06 08:16:38;;;;;;;5.90;2.85;;;;;;;3.90;43.42;100196.34;4434639;32;35701;-73
2022/03/06 08:19:24;;;;;;;6.07;3.05;;;;;;;3.66;44.23;100196.59;4432674;32;34672;-73
2022/03/06 08:22:10;;;;;;;6.05;3.10;;;;;;;4.54;43.68;100191.06;4446423;32;34203;-74
2022/03/06 08:24:56;;;;;;;7.65;3.40;;;;;;;4.10;43.04;100190.31;4434717;32;34502;-73
2022/03/06 08:27:42;;;;;;;5.53;2.58;;;;;;;4.16;42.27;100190.16;4433883;32;34482;-73
2022/03/06 08:30:29;;;;;;;4.95;2.33;;;;;;;4.42;42.76;100187.69;4433300;32;34703;-73
2022/03/06 08:33:15;;;;;;;4.85;2.53;;;;;;;4.50;41.30;100184.50;4446516;32;34006;-73
2022/03/06 08:36:02;;;;;;;6.97;2.58;;;;;;;3.83;41.87;100172.13;4433744;32;34590;-73
2022/03/06 08:38:51;;;;;;;5.55;2.67;;;;;;;3.64;41.54;100171.63;4435272;32;34740;-72
2022/03/06 08:41:37;;;;;;;6.15;2.78;;;;;;;3.79;43.10;100169.13;4447161;32;34262;-72
2022/03/06 08:44:24;;;;;;;6.15;2.70;;;;;;;4.70;41.63;100173.00;4446012;32;34411;-72
2022/03/06 08:47:11;;;;;;;5.82;2.92;;;;;;;4.33;41.66;100173.78;4433226;32;35255;-72
2022/03/06 08:49:57;;;;;;;5.07;2.25;;;;;;;5.01;41.03;100173.22;4445221;32;35714;-74
2022/03/06 08:52:43;;;;;;;4.30;2.10;;;;;;;5.52;39.02;100170.81;4446190;32;34795;-74
2022/03/06 08:55:29;;;;;;;5.32;2.70;;;;;;;5.79;37.43;100171.50;4433958;32;34259;-73
2022/03/06 08:58:16;;;;;;;5.60;2.60;;;;;;;5.09;38.67;100170.84;4433829;32;35356;-73
2022/03/06 09:01:02;;;;;;;5.47;2.90;;;;;;;5.70;38.25;100167.66;4446101;32;35012;-73
2022/03/06 09:03:49;;;;;;;6.93;2.58;;;;;;;5.20;38.41;100169.00;4442914;32;35086;-73
2022/03/06 09:06:36;;;;;;;10.57;3.78;;;;;;;5.34;39.30;100178.34;4446836;32;34185;-73
2022/03/06 09:09:22;;;;;;;11.23;3.62;;;;;;;5.30;38.24;100171.00;4435211;32;34301;-72
2022/03/06 09:12:08;;;;;;;6.55;3.50;;;;;;;5.83;38.15;100175.31;4435071;32;33999;-72
2022/03/06 09:14:55;;;;;;;7.87;3.55;;;;;;;5.49;37.01;100172.16;4435374;32;34068;-73
2022/03/06 09:17:41;;;;;;;8.98;4.07;;;;;;;6.51;36.30;100167.06;4422715;32;35391;-74
2022/03/06 09:20:28;;;;;;;9.45;4.12;;;;;;;6.67;35.71;100162.44;4444256;32;34251;-73
2022/03/06 09:23:15;;;;;;;9.27;4.07;;;;;;;7.46;35.08;100164.78;4432975;32;35645;-73
2022/03/06 09:26:01;;;;;;;9.88;4.55;;;;;;;7.16;36.11;100164.56;4435164;32;34646;-73
2022/03/06 09:28:47;;;;;;;8.68;4.35;;;;;;;7.67;33.86;100158.16;4446762;32;33759;-74
2022/03/06 09:31:34;;;;;;;8.68;4.70;;;;;;;7.10;34.10;100165.69;4434160;32;36030;-74
2022/03/06 09:34:21;;;;;;;9.82;5.00;;;;;;;7.72;34.03;100160.88;4420373;32;34340;-74
2022/03/06 09:37:07;;;;;;;9.32;5.10;;;;;;;8.47;32.04;100154.47;4420701;32;35066;-73
2022/03/06 09:39:54;;;;;;;7.75;4.53;;;;;;;8.56;32.60;100153.56;4427452;32;34128;-74
2022/03/06 09:42:40;;;;;;;9.52;5.35;;;;;;;9.12;31.23;100148.72;4441384;32;34065;-69
2022/03/06 09:45:29;;;;;;;8.95;4.85;;;;;;;9.13;31.34;100148.44;4431863;32;35612;-69
2022/03/06 09:48:17;;;;;;;8.40;5.03;;;;;;;9.54;30.61;100141.72;4432481;32;34821;-69
2022/03/06 09:51:05;;;;;;;8.80;4.78;;;;;;;9.79;30.25;100140.56;4433000;32;35290;-70
2022/03/06 09:53:51;;;;;;;10.65;4.90;;;;;;;9.81;30.79;100133.69;4430307;32;34220;-70
2022/03/06 09:56:37;;;;;;;9.32;4.97;;;;;;;9.44;30.29;100137.97;4425952;32;34938;-70
2022/03/06 09:59:24;;;;;;;8.90;4.90;;;;;;;9.99;31.39;100136.75;4430729;32;34495;-70
2022/03/06 10:02:11;;;;;;;9.73;5.10;;;;;;;10.00;29.96;100135.66;4428573;32;35125;-70
2022/03/06 10:04:58;;;;;;;9.57;4.85;;;;;;;10.00;30.43;100135.66;4442451;32;35206;-69
2022/03/06 10:07:44;;;;;;;10.52;5.55;;;;;;;11.03;28.92;100125.53;4431031;32;34594;-70
2022/03/06 10:10:37;;;;;;;10.40;5.60;;;;;;;9.96;30.13;100137.34;4425983;32;35457;-70
2022/03/06 10:13:42;;;;;;;9.38;5.50;;;;;;;10.82;29.29;100135.25;4441969;32;34492;-70
2022/03/06 10:16:29;;;;;;;9.70;5.18;;;;;;;11.35;28.37;100126.56;4434980;32;34670;-70
2022/03/06 10:19:15;;;;;;;9.20;5.20;;;;;;;11.53;27.90;100126.81;4425176;32;35618;-70
2022/03/06 10:22:11;;;;;;;9.02;4.82;;;;;;;11.12;29.10;100127.56;4423578;32;34704;-70
2022/03/06 10:25:16;;;;;;;8.93;4.93;;;;;;;11.55;27.81;100132.78;4431125;32;34027;-71
2022/03/06 10:28:03;;;;;;;9.93;5.68;;;;;;;11.46;27.73;100132.69;4423036;32;34345;-71
2022/03/06 10:30:49;;;;;;;9.95;4.95;;;;;;;12.09;26.36;100120.94;4428424;32;89256;-71
2022/03/06 10:33:36;;;;;;;10.10;4.97;;;;;;;11.99;26.38;100112.13;4430038;32;34639;-71
2022/03/06 10:36:35;;;;;;;9.75;5.28;;;;;;;11.76;27.18;100117.53;4396318;32;34159;-70
2022/03/06 10:39:23;;;;;;;8.93;5.05;;;;;;;12.38;26.66;100106.00;4425418;32;35633;-70
2022/03/06 10:42:10;;;;;;;10.30;5.43;;;;;;;12.24;26.38;100102.47;4432592;32;34526;-70
2022/03/06 10:44:56;;;;;;;10.00;5.43;;;;;;;12.15;26.01;100096.91;4428950;32;34594;-70
2022/03/06 10:47:47;;;;;;;9.90;5.03;;;;;;;12.73;26.12;100098.00;4431091;32;34023;-71
2022/03/06 10:50:33;;;;;;;7.87;4.95;;;;;;;12.92;25.93;100095.03;4434369;32;34725;-71
2022/03/06 10:53:21;;;;;;;9.98;5.12;;;;;;;13.18;25.20;100090.47;4425624;32;35982;-70
2022/03/06 10:56:14;;;;;;;10.13;5.68;;;;;;;12.17;27.32;100085.63;4423457;32;34233;-71
2022/03/06 10:59:03;;;;;;;8.57;5.12;;;;;;;12.89;25.65;100079.94;4420418;32;34962;-70
2022/03/06 11:01:50;;;;;;;9.05;4.65;;;;;;;11.92;26.69;100080.41;4433713;32;34728;-71
2022/03/06 11:04:37;;;;;;;8.75;5.03;;;;;;;12.80;25.86;100074.41;4421187;32;35132;-71
2022/03/06 11:07:27;;;;;;;9.65;5.72;;;;;;;13.08;25.08;100071.47;4425852;32;35541;-71
2022/03/06 11:10:14;;;;;;;10.68;5.75;;;;;;;12.81;25.56;100058.75;4428218;32;35011;-71
2022/03/06 11:13:02;;;;;;;8.75;5.50;;;;;;;12.13;26.89;100056.03;4427597;32;34340;-71
2022/03/06 11:15:49;;;;;;;10.88;5.82;;;;;;;12.95;24.52;100051.22;4428444;32;35599;-72
2022/03/06 11:18:35;;;;;;;9.35;5.62;;;;;;;11.75;26.58;100036.28;4417798;32;34330;-71
2022/03/06 11:21:24;;;;;;;10.05;6.32;;;;;;;11.40;26.23;100037.88;4424607;32;33757;-71
2022/03/06 11:24:18;;;;;;;10.00;5.78;;;;;;;9.30;29.91;100032.31;4438894;32;34332;-71
2022/03/06 11:27:29;;;;;;;10.63;5.70;;;;;;;8.75;31.01;100040.87;4422552;32;35880;-71
2022/03/06 11:30:20;;;;;;;12.05;5.12;;;;;;;10.37;29.22;100040.94;4425795;32;34481;-71
2022/03/06 11:33:08;;;;;;;10.23;6.00;;;;;;;8.63;31.13;100032.25;4426335;32;34131;-71
2022/03/06 11:35:56;;;;;;;10.95;5.72;;;;;;;9.66;30.46;100038.13;4433851;32;34293;-71
2022/03/06 11:38:45;;;;;;;10.30;5.70;;;;;;;10.07;29.72;100041.06;4433714;32;35150;-71
2022/03/06 11:41:36;;;;;;;10.70;5.40;;;;;;;8.37;32.53;100028.91;4435082;32;35728;-71
2022/03/06 11:44:33;;;;;;;11.80;5.80;;;;;;;9.29;30.88;100023.31;4430757;32;34387;-71
2022/03/06 11:47:21;;;;;;;11.65;5.90;;;;;;;9.09;30.99;100015.38;4434280;32;34638;-71
2022/03/06 11:50:08;;;;;;;9.57;5.12;;;;;;;8.60;31.47;100021.91;4421771;32;35840;-71
2022/03/06 11:52:55;;;;;;;12.35;6.70;;;;;;;8.79;31.33;100025.53;4422311;32;34626;-71
2022/03/06 11:55:41;;;;;;;10.50;6.07;;;;;;;8.01;32.60;100019.09;4435263;32;35247;-71
2022/03/06 11:58:54;;;;;;;12.80;5.87;;;;;;;7.35;33.74;100016.81;4435341;32;36174;-71
2022/03/06 12:01:49;;;;;;;12.05;5.85;;;;;;;8.00;32.63;100014.75;4415287;32;34950;-71
2022/03/06 12:04:39;;;;;;;11.65;5.87;;;;;;;8.43;32.26;100017.69;4423117;32;33397;-71
2022/03/06 12:07:26;;;;;;;10.25;5.65;;;;;;;7.20;33.87;100007.59;4432800;32;34213;-71
2022/03/06 12:10:15;;;;;;;12.32;6.00;;;;;;;7.71;33.53;99998.28;4413171;32;34247;-71
2022/03/06 12:13:00;;;;;;;11.98;5.70;;;;;;;8.41;32.55;99994.50;4423270;32;34869;-71
2022/03/06 12:16:05;;;;;;;11.02;6.25;;;;;;;8.38;32.42;100000.50;4422170;32;35597;-71
2022/03/06 12:19:02;;;;;;;10.50;5.85;;;;;;;8.14;32.58;99992.25;4423064;32;34342;-71
2022/03/06 12:21:48;;;;;;;11.00;6.22;;;;;;;8.31;32.60;99989.91;4431825;32;34251;-71
2022/03/06 12:24:35;;;;;;;10.95;5.43;;;;;;;8.85;31.27;99988.88;4433923;32;34987;-71
2022/03/06 12:27:25;;;;;;;11.23;5.75;;;;;;;9.56;31.65;99978.09;4434412;32;33608;-71
2022/03/06 12:30:13;;;;;;;11.73;6.05;;;;;;;9.91;29.69;99985.75;4421768;32;34196;-70
2022/03/06 12:33:24;;;;;;;11.30;5.70;;;;;;;9.35;30.75;99978.37;4434020;32;35324;-71
2022/03/06 12:36:14;;;;;;;11.50;6.45;;;;;;;8.87;30.75;99977.63;4421455;32;34896;-71
2022/03/06 12:39:04;;;;;;;13.80;6.90;;;;;;;8.95;31.00;99975.06;4419923;32;33593;-71
2022/03/06 12:41:50;;;;;;;10.60;6.12;;;;;;;9.44;30.43;99971.13;4423542;32;34417;-71
2022/03/06 12:44:45;;;;;;;11.18;6.62;;;;;;;9.50;31.73;99963.66;4423760;32;35636;-71
2022/03/06 12:47:31;;;;;;;10.75;6.20;;;;;;;10.12;29.83;99960.78;4435736;32;35680;-71
2022/03/06 12:50:19;;;;;;;11.57;6.12;;;;;;;10.46;29.60;99962.41;4425212;32;33377;-71
2022/03/06 12:53:05;;;;;;;11.15;6.00;;;;;;;10.53;28.61;99957.34;4424992;32;34161;-71
2022/03/06 12:55:58;;;;;;;11.65;6.90;;;;;;;9.91;29.04;99955.66;4425500;32;35574;-71
2022/03/06 12:58:45;;;;;;;12.43;6.20;;;;;;;9.60;29.02;99952.59;4425686;32;34658;-71
2022/03/06 13:01:34;;;;;;;10.70;5.87;;;;;;;8.56;30.25;99954.19;4436629;32;34645;-71